Time;durP1;ratioP1;P1;durP2;ratioP2;P2;SDS_P1;SDS_P2;PMS_P1;PMS_P2;Temp;Humidity;BMP_temperature;BMP_pressure;BME280_temperature;BME280_humidity;BME280_pressure;Samples;Min_cycle;Max_cycle;Signal;HPM_P1;HPM_P2
2022/10/30 00:00:56;;;;;;;;;;;20.70;66.30;;;;;;5093731;28;19959;-59
2022/10/30 00:03:21;;;;;;;;;;;20.70;66.20;;;;;;5093722;28;19919;-59
2022/10/30 00:05:48;;;;;;;;;;;20.60;66.20;;;;;;5093519;28;19957;-59
2022/10/30 00:08:14;;;;;;;;;;;20.70;66.40;;;;;;5093549;28;19924;-59
2022/10/30 00:10:39;;;;;;;;;;;20.60;66.30;;;;;;5092674;28;19916;-58
2022/10/30 00:13:05;;;;;;;;;;;20.70;66.40;;;;;;5093349;28;20382;-58
2022/10/30 00:15:31;;;;;;;;;;;20.70;66.20;;;;;;5093398;28;19908;-59
2022/10/30 00:17:56;;;;;;;;;;;20.70;66.20;;;;;;5093639;28;20041;-59
2022/10/30 00:20:21;;;;;;;;;;;20.70;66.30;;;;;;5093325;28;19908;-59
2022/10/30 00:22:47;;;;;;;;;;;20.70;66.30;;;;;;5093379;28;19919;-59
2022/10/30 00:25:12;;;;;;;;;;;20.70;66.30;;;;;;5090281;28;20403;-58
2022/10/30 00:27:38;;;;;;;;;;;20.60;66.10;;;;;;5072782;28;20349;-59
2022/10/30 00:30:03;;;;;;;;;;;20.70;66.10;;;;;;5055099;28;20315;-59
2022/10/30 00:32:29;;;;;;;;;;;20.70;66.10;;;;;;5055124;28;20007;-59
2022/10/30 00:34:54;;;;;;;;;;;20.70;66.20;;;;;;5072898;28;19955;-59
2022/10/30 00:37:20;;;;;;;;;;;20.70;66.00;;;;;;5072990;28;20026;-58
2022/10/30 00:39:45;;;;;;;;;;;20.70;66.90;;;;;;5090628;28;19984;-59
2022/10/30 00:42:11;;;;;;;;;;;20.70;66.10;;;;;;5092718;28;19911;-58
2022/10/30 00:44:42;;;;;;;;;;;20.70;66.10;;;;;;5074994;28;20019;-58
2022/10/30 00:47:10;;;;;;;;;;;20.70;66.10;;;;;;5093143;28;19908;-59
2022/10/30 00:49:36;;;;;;;;;;;20.70;66.00;;;;;;5093134;28;19916;-58
2022/10/30 00:52:02;;;;;;;;;;;20.70;65.90;;;;;;5092824;28;20283;-58
2022/10/30 00:54:27;;;;;;;;;;;20.70;65.80;;;;;;5075020;28;19908;-59
2022/10/30 00:56:53;;;;;;;;;;;20.70;65.80;;;;;;5090282;28;19915;-59
2022/10/30 00:59:20;;;;;;;;;;;20.70;65.90;;;;;;5072780;28;19909;-59
2022/10/30 01:01:46;;;;;;;;;;;20.70;66.00;;;;;;5054593;28;19915;-59
2022/10/30 01:04:11;;;;;;;;;;;20.70;66.00;;;;;;5072491;28;19916;-58
2022/10/30 01:06:38;;;;;;;;;;;20.70;66.00;;;;;;5072241;28;19915;-59
2022/10/30 01:09:03;;;;;;;;;;;20.60;65.80;;;;;;5085076;28;19962;-59
2022/10/30 01:11:28;;;;;;;;;;;20.70;66.00;;;;;;5091829;28;19944;-58
2022/10/30 01:13:54;;;;;;;;;;;20.60;66.00;;;;;;5092769;28;19919;-59
2022/10/30 01:16:39;;;;;;;;;;;20.60;66.10;;;;;;5074592;28;19908;-59
2022/10/30 01:19:14;;;;;;;;;;;20.60;66.20;;;;;;5092771;28;20259;-59
2022/10/30 01:21:49;;;;;;;;;;;20.60;66.10;;;;;;5092583;28;19915;-58
2022/10/30 01:24:22;;;;;;;;;;;20.60;66.10;;;;;;5076479;28;19962;-59
2022/10/30 01:26:53;;;;;;;;;;;20.60;66.10;;;;;;5077527;28;19908;-59
2022/10/30 01:29:34;;;;;;;;;;;20.50;66.10;;;;;;5096905;28;20359;-59
2022/10/30 01:32:05;;;;;;;;;;;20.50;66.10;;;;;;5078335;28;20409;-58
2022/10/30 01:34:35;;;;;;;;;;;20.50;66.10;;;;;;5096747;28;19909;-59
2022/10/30 01:37:33;;;;;;;;;;;20.50;66.10;;;;;;5078367;28;19908;-59
2022/10/30 01:40:08;;;;;;;;;;;20.50;66.10;;;;;;5061927;28;19915;-59
2022/10/30 01:42:53;;;;;;;;;;;20.50;66.20;;;;;;5077864;28;20014;-59
2022/10/30 01:45:21;;;;;;;;;;;20.50;66.20;;;;;;5096454;28;19944;-58
2022/10/30 01:48:07;;;;;;;;;;;20.50;66.20;;;;;;5082534;28;19908;-58
2022/10/30 01:50:52;;;;;;;;;;;20.50;66.20;;;;;;5058078;28;19908;-59
2022/10/30 01:53:23;;;;;;;;;;;20.50;66.10;;;;;;5076215;28;19909;-59
2022/10/30 01:55:48;;;;;;;;;;;20.50;66.20;;;;;;5074934;28;19962;-59
2022/10/30 01:58:16;;;;;;;;;;;20.50;66.20;;;;;;5076062;28;19916;-59
2022/10/30 02:00:42;;;;;;;;;;;20.50;66.10;;;;;;5057744;28;19909;-58
2022/10/30 02:03:07;;;;;;;;;;;20.50;66.10;;;;;;5057952;28;20261;-59
2022/10/30 02:05:42;;;;;;;;;;;20.50;66.10;;;;;;5075559;28;20002;-59
2022/10/30 02:08:08;;;;;;;;;;;20.50;66.10;;;;;;5062633;28;19927;-58
2022/10/30 02:10:34;;;;;;;;;;;20.50;66.10;;;;;;5095374;28;19908;-58
2022/10/30 02:12:59;;;;;;;;;;;20.50;66.10;;;;;;5078126;28;19999;-58
2022/10/30 02:15:25;;;;;;;;;;;20.50;66.20;;;;;;5077703;28;19921;-58
2022/10/30 02:17:50;;;;;;;;;;;20.50;66.10;;;;;;5095887;28;19916;-58
2022/10/30 02:20:16;;;;;;;;;;;20.50;66.10;;;;;;5095764;28;19908;-59
2022/10/30 02:22:42;;;;;;;;;;;20.40;66.00;;;;;;5077475;28;19998;-58
2022/10/30 02:25:07;;;;;;;;;;;20.40;66.00;;;;;;5093404;28;20015;-59
2022/10/30 02:27:33;;;;;;;;;;;20.40;66.00;;;;;;5075310;28;19916;-60
2022/10/30 02:29:59;;;;;;;;;;;20.40;66.10;;;;;;5057413;28;20353;-59
2022/10/30 02:32:24;;;;;;;;;;;20.50;66.10;;;;;;5075360;28;20280;-59
2022/10/30 02:34:50;;;;;;;;;;;20.50;66.10;;;;;;5074774;28;19955;-59
2022/10/30 02:37:15;;;;;;;;;;;20.40;66.00;;;;;;5075183;28;19962;-58
2022/10/30 02:39:41;;;;;;;;;;;20.40;66.20;;;;;;5092323;28;20364;-59
2022/10/30 02:42:06;;;;;;;;;;;20.40;66.30;;;;;;5094876;28;19908;-59
2022/10/30 02:44:32;;;;;;;;;;;20.40;66.30;;;;;;5077146;28;19966;-59
2022/10/30 02:46:57;;;;;;;;;;;20.40;66.30;;;;;;5095154;28;19913;-59
2022/10/30 02:49:22;;;;;;;;;;;20.40;66.20;;;;;;5095586;28;19912;-59
2022/10/30 02:51:48;;;;;;;;;;;20.40;66.40;;;;;;5095099;28;20401;-58
2022/10/30 02:54:13;;;;;;;;;;;20.40;66.30;;;;;;5095230;28;20356;-58
2022/10/30 02:56:39;;;;;;;;;;;20.40;66.20;;;;;;5094043;28;20372;-59
2022/10/30 02:59:05;;;;;;;;;;;20.40;66.20;;;;;;5057199;28;19919;-58
2022/10/30 03:01:30;;;;;;;;;;;20.40;66.20;;;;;;5074625;28;19974;-58
2022/10/30 03:03:56;;;;;;;;;;;20.40;66.10;;;;;;5074518;28;20339;-59
2022/10/30 03:06:21;;;;;;;;;;;20.40;66.10;;;;;;5074609;28;20279;-59
2022/10/30 03:08:47;;;;;;;;;;;20.40;66.00;;;;;;5084481;28;19946;-59
2022/10/30 03:11:15;;;;;;;;;;;20.40;66.00;;;;;;5093918;28;19908;-59
2022/10/30 03:13:41;;;;;;;;;;;20.40;66.10;;;;;;5094728;28;19909;-59
2022/10/30 03:16:07;;;;;;;;;;;20.40;66.10;;;;;;5094447;28;19931;-59
2022/10/30 03:18:33;;;;;;;;;;;20.40;66.10;;;;;;5094804;28;19908;-59
2022/10/30 03:20:59;;;;;;;;;;;20.40;66.10;;;;;;5094450;28;19908;-59
2022/10/30 03:23:24;;;;;;;;;;;20.40;66.10;;;;;;5094541;28;19916;-58
2022/10/30 03:25:56;;;;;;;;;;;20.40;66.10;;;;;;5093553;28;19915;-59
2022/10/30 03:28:22;;;;;;;;;;;20.40;66.10;;;;;;5094576;28;19908;-59
2022/10/30 03:30:47;;;;;;;;;;;20.40;66.10;;;;;;5094144;28;19908;-59
2022/10/30 03:33:13;;;;;;;;;;;20.40;66.10;;;;;;5094466;28;19908;-59
2022/10/30 03:35:38;;;;;;;;;;;20.30;66.00;;;;;;5094155;28;19912;-58
2022/10/30 03:38:04;;;;;;;;;;;20.40;66.10;;;;;;5094385;28;19912;-58
2022/10/30 03:40:29;;;;;;;;;;;20.40;66.10;;;;;;5093667;28;19908;-58
2022/10/30 03:42:54;;;;;;;;;;;20.40;66.10;;;;;;5094255;28;19916;-59
2022/10/30 03:45:20;;;;;;;;;;;20.40;66.10;;;;;;5093968;28;19908;-59
2022/10/30 03:47:45;;;;;;;;;;;20.40;66.10;;;;;;5078171;28;19908;-59
2022/10/30 03:50:11;;;;;;;;;;;20.40;66.00;;;;;;5055866;28;19942;-59
2022/10/30 03:52:36;;;;;;;;;;;20.40;66.00;;;;;;5055714;28;19956;-58
2022/10/30 03:55:02;;;;;;;;;;;20.40;65.80;;;;;;5073228;28;19953;-59
2022/10/30 03:57:27;;;;;;;;;;;20.40;65.90;;;;;;5055353;28;19919;-59
2022/10/30 03:59:52;;;;;;;;;;;20.40;65.90;;;;;;5055882;28;19908;-59
2022/10/30 04:02:18;;;;;;;;;;;20.40;65.90;;;;;;5055526;28;19915;-58
2022/10/30 04:04:43;;;;;;;;;;;20.40;65.90;;;;;;5055309;28;19919;-58
2022/10/30 04:07:09;;;;;;;;;;;20.40;65.80;;;;;;5055261;28;19920;-59
2022/10/30 04:09:34;;;;;;;;;;;20.40;65.90;;;;;;5089944;28;19919;-59
2022/10/30 04:12:00;;;;;;;;;;;20.40;66.00;;;;;;5092877;28;19919;-58
2022/10/30 04:14:25;;;;;;;;;;;20.40;65.80;;;;;;5093497;28;20388;-59
2022/10/30 04:16:50;;;;;;;;;;;20.40;65.70;;;;;;5093279;28;20363;-59
2022/10/30 04:19:16;;;;;;;;;;;20.40;65.70;;;;;;5093580;28;20007;-58
2022/10/30 04:21:42;;;;;;;;;;;20.40;65.70;;;;;;5075164;28;19908;-59
2022/10/30 04:24:08;;;;;;;;;;;20.40;65.70;;;;;;5093350;28;19982;-59
2022/10/30 04:26:33;;;;;;;;;;;20.40;65.60;;;;;;5078497;28;20391;-59
2022/10/30 04:28:59;;;;;;;;;;;20.40;65.70;;;;;;5073094;28;20387;-59
2022/10/30 04:31:24;;;;;;;;;;;20.40;65.70;;;;;;5072890;28;20354;-59
2022/10/30 04:33:50;;;;;;;;;;;20.40;65.70;;;;;;5073045;28;19915;-59
2022/10/30 04:36:17;;;;;;;;;;;20.40;65.80;;;;;;5073095;28;19908;-59
2022/10/30 04:38:42;;;;;;;;;;;20.40;65.70;;;;;;5064863;28;20257;-59
2022/10/30 04:41:07;;;;;;;;;;;20.40;65.70;;;;;;5092290;28;19927;-59
2022/10/30 04:43:33;;;;;;;;;;;20.40;65.80;;;;;;5093199;28;19971;-59
2022/10/30 04:45:58;;;;;;;;;;;20.40;65.70;;;;;;5092927;28;20283;-59
2022/10/30 04:48:24;;;;;;;;;;;20.40;65.50;;;;;;5093175;28;20323;-58
2022/10/30 04:50:49;;;;;;;;;;;20.40;65.40;;;;;;5092763;28;20287;-58
2022/10/30 04:53:15;;;;;;;;;;;20.40;65.50;;;;;;5093088;28;19919;-59
2022/10/30 04:55:41;;;;;;;;;;;20.40;65.60;;;;;;5073906;28;19923;-59
2022/10/30 04:58:08;;;;;;;;;;;20.40;65.60;;;;;;5063066;28;19909;-59
2022/10/30 05:00:33;;;;;;;;;;;20.40;65.60;;;;;;5072595;28;20298;-59
2022/10/30 05:02:59;;;;;;;;;;;20.40;65.60;;;;;;5054760;28;20007;-59
2022/10/30 05:05:25;;;;;;;;;;;20.40;65.70;;;;;;5072683;28;19919;-59
2022/10/30 05:07:50;;;;;;;;;;;20.40;65.70;;;;;;5074679;28;20338;-59
2022/10/30 05:10:17;;;;;;;;;;;20.40;65.60;;;;;;5092455;28;19908;-59
2022/10/30 05:12:43;;;;;;;;;;;20.40;65.60;;;;;;5092536;28;19908;-59
2022/10/30 05:15:08;;;;;;;;;;;20.30;65.70;;;;;;5092605;28;20367;-58
2022/10/30 05:17:34;;;;;;;;;;;20.30;65.70;;;;;;5092935;28;19915;-59
2022/10/30 05:19:59;;;;;;;;;;;20.30;65.70;;;;;;5092729;28;19912;-59
2022/10/30 05:22:25;;;;;;;;;;;20.30;66.50;;;;;;5092608;28;19912;-59
2022/10/30 05:24:50;;;;;;;;;;;20.30;65.80;;;;;;5074286;28;19915;-59
2022/10/30 05:27:15;;;;;;;;;;;20.30;65.80;;;;;;5092375;28;19916;-58
2022/10/30 05:29:41;;;;;;;;;;;20.30;65.70;;;;;;5093051;28;19909;-58
2022/10/30 05:32:06;;;;;;;;;;;20.30;65.60;;;;;;5074501;28;20318;-58
2022/10/30 05:34:32;;;;;;;;;;;20.30;65.60;;;;;;5092642;28;20322;-58
2022/10/30 05:36:57;;;;;;;;;;;20.30;65.70;;;;;;5092265;28;20359;-59
2022/10/30 05:39:23;;;;;;;;;;;20.30;65.80;;;;;;5092543;28;20368;-59
2022/10/30 05:41:48;;;;;;;;;;;20.30;65.90;;;;;;5091610;28;20368;-59
2022/10/30 05:44:14;;;;;;;;;;;20.20;65.80;;;;;;5092594;28;19919;-59
2022/10/30 05:46:39;;;;;;;;;;;20.20;65.80;;;;;;5087230;28;20003;-59
2022/10/30 05:49:05;;;;;;;;;;;20.30;65.80;;;;;;5072298;28;20365;-59
2022/10/30 05:51:30;;;;;;;;;;;20.30;65.70;;;;;;5072127;28;20273;-58
2022/10/30 05:53:56;;;;;;;;;;;20.30;65.70;;;;;;5072190;28;20348;-58
2022/10/30 05:56:21;;;;;;;;;;;20.30;65.70;;;;;;5071155;28;19908;-59
2022/10/30 05:58:49;;;;;;;;;;;20.30;65.70;;;;;;5072080;28;19913;-58
2022/10/30 06:01:15;;;;;;;;;;;20.30;65.70;;;;;;5072014;28;19919;-59
2022/10/30 06:03:40;;;;;;;;;;;20.30;65.60;;;;;;5071969;28;20293;-59
2022/10/30 06:06:06;;;;;;;;;;;20.30;65.60;;;;;;5053919;28;19909;-59
2022/10/30 06:08:31;;;;;;;;;;;20.30;65.60;;;;;;5079852;28;19967;-58
2022/10/30 06:10:57;;;;;;;;;;;20.30;65.60;;;;;;5094103;28;19908;-59
2022/10/30 06:13:22;;;;;;;;;;;20.30;65.60;;;;;;5095993;28;20449;-58
2022/10/30 06:15:48;;;;;;;;;;;20.30;65.50;;;;;;5095647;28;20390;-58
2022/10/30 06:18:13;;;;;;;;;;;20.30;65.60;;;;;;5077815;28;20292;-59
2022/10/30 06:20:39;;;;;;;;;;;20.20;65.50;;;;;;5095601;28;20003;-58
2022/10/30 06:23:05;;;;;;;;;;;20.20;65.50;;;;;;5077691;28;19931;-58
2022/10/30 06:25:31;;;;;;;;;;;20.30;65.70;;;;;;5090001;28;19958;-59
2022/10/30 06:27:57;;;;;;;;;;;20.30;65.60;;;;;;5075598;28;20268;-59
2022/10/30 06:30:23;;;;;;;;;;;20.30;65.50;;;;;;5075157;28;19916;-59
2022/10/30 06:32:48;;;;;;;;;;;20.30;65.40;;;;;;5075377;28;19958;-58
2022/10/30 06:35:14;;;;;;;;;;;20.30;65.30;;;;;;5075177;28;20382;-59
2022/10/30 06:37:48;;;;;;;;;;;20.30;65.20;;;;;;5057716;28;19916;-58
2022/10/30 06:40:14;;;;;;;;;;;20.30;65.20;;;;;;5094959;28;19939;-58
2022/10/30 06:42:43;;;;;;;;;;;20.30;65.30;;;;;;5076892;28;20399;-58
2022/10/30 06:45:09;;;;;;;;;;;20.30;65.20;;;;;;5095310;28;19915;-59
2022/10/30 06:47:35;;;;;;;;;;;20.30;65.20;;;;;;5095192;28;19962;-58
2022/10/30 06:50:00;;;;;;;;;;;20.30;65.20;;;;;;5095217;28;19912;-59
2022/10/30 06:52:26;;;;;;;;;;;20.30;65.30;;;;;;5095295;28;20019;-59
2022/10/30 06:54:51;;;;;;;;;;;20.30;65.20;;;;;;5076547;28;20049;-58
2022/10/30 06:57:17;;;;;;;;;;;20.30;65.10;;;;;;5089685;28;19916;-59
2022/10/30 06:59:42;;;;;;;;;;;20.30;65.10;;;;;;5074688;28;19995;-59
2022/10/30 07:02:08;;;;;;;;;;;20.40;65.10;;;;;;5074749;28;19908;-59
2022/10/30 07:04:34;;;;;;;;;;;20.40;65.00;;;;;;5056689;28;19962;-59
2022/10/30 07:06:59;;;;;;;;;;;20.40;65.00;;;;;;5074486;28;20371;-59
2022/10/30 07:09:25;;;;;;;;;;;20.40;64.90;;;;;;5089908;28;19912;-59
2022/10/30 07:11:50;;;;;;;;;;;20.40;65.00;;;;;;5093931;28;20171;-59
2022/10/30 07:14:15;;;;;;;;;;;20.30;64.90;;;;;;5094832;28;19908;-59
2022/10/30 07:16:41;;;;;;;;;;;20.40;65.00;;;;;;5094474;28;19943;-58
2022/10/30 07:19:06;;;;;;;;;;;20.40;65.00;;;;;;5094766;28;19915;-58
2022/10/30 07:21:32;;;;;;;;;;;20.40;65.00;;;;;;5093342;28;19915;-58
2022/10/30 07:23:57;;;;;;;;;;;20.40;65.00;;;;;;5094661;28;20381;-58
2022/10/30 07:26:22;;;;;;;;;;;20.40;65.00;;;;;;5093638;28;19908;-58
2022/10/30 07:28:48;;;;;;;;;;;20.40;65.00;;;;;;5094492;28;19916;-58
2022/10/30 07:31:13;;;;;;;;;;;20.40;64.90;;;;;;5094292;28;19915;-58
2022/10/30 07:33:39;;;;;;;;;;;20.40;64.90;;;;;;5094414;28;19908;-58
2022/10/30 07:36:05;;;;;;;;;;;20.40;64.90;;;;;;5076094;28;19913;-58
2022/10/30 07:38:30;;;;;;;;;;;20.40;65.00;;;;;;5094194;28;19909;-59
2022/10/30 07:40:55;;;;;;;;;;;20.40;64.90;;;;;;5093361;28;19963;-59
2022/10/30 07:43:21;;;;;;;;;;;20.40;65.00;;;;;;5094201;28;19965;-59
2022/10/30 07:45:46;;;;;;;;;;;20.40;65.00;;;;;;5093969;28;19961;-59
2022/10/30 07:48:12;;;;;;;;;;;20.40;64.90;;;;;;5076749;28;19970;-59
2022/10/30 07:50:37;;;;;;;;;;;20.40;64.80;;;;;;5073540;28;19942;-58
2022/10/30 07:53:02;;;;;;;;;;;20.40;64.90;;;;;;5073774;28;19908;-58
2022/10/30 07:55:28;;;;;;;;;;;20.40;64.90;;;;;;5072800;28;19915;-59
2022/10/30 07:57:53;;;;;;;;;;;20.30;64.80;;;;;;5073671;28;19952;-59
2022/10/30 08:00:19;;;;;;;;;;;20.30;64.90;;;;;;5073562;28;19915;-59
2022/10/30 08:02:47;;;;;;;;;;;20.30;65.00;;;;;;5073345;28;19909;-59
2022/10/30 08:05:13;;;;;;;;;;;20.30;65.00;;;;;;5073467;28;19908;-59
2022/10/30 08:07:38;;;;;;;;;;;20.30;65.10;;;;;;5073621;28;19921;-58
2022/10/30 08:10:04;;;;;;;;;;;20.30;65.10;;;;;;5093180;28;20261;-58
2022/10/30 08:12:31;;;;;;;;;;;20.30;65.00;;;;;;5075112;28;20000;-58
2022/10/30 08:14:56;;;;;;;;;;;20.40;64.90;;;;;;5093441;28;20384;-58
2022/10/30 08:17:22;;;;;;;;;;;20.40;64.80;;;;;;5093501;28;19935;-59
2022/10/30 08:19:48;;;;;;;;;;;20.40;64.80;;;;;;5093511;28;19908;-59
2022/10/30 08:22:13;;;;;;;;;;;20.40;64.70;;;;;;5093698;28;19908;-59
2022/10/30 08:24:39;;;;;;;;;;;20.40;64.70;;;;;;5093068;28;19981;-59
2022/10/30 08:27:04;;;;;;;;;;;20.40;64.60;;;;;;5074876;28;19959;-59
2022/10/30 08:29:30;;;;;;;;;;;20.40;64.60;;;;;;5073349;28;19939;-59
2022/10/30 08:31:55;;;;;;;;;;;20.40;64.60;;;;;;5072849;28;19908;-59
2022/10/30 08:34:21;;;;;;;;;;;20.40;64.40;;;;;;5055028;28;19916;-59
2022/10/30 08:36:49;;;;;;;;;;;20.40;64.50;;;;;;5072665;28;19955;-59
2022/10/30 08:39:15;;;;;;;;;;;20.40;64.90;;;;;;5075325;28;20112;-59
2022/10/30 08:41:40;;;;;;;;;;;20.40;64.50;;;;;;5092260;28;19908;-59
2022/10/30 08:44:06;;;;;;;;;;;20.40;64.50;;;;;;5093213;28;19970;-59
2022/10/30 08:46:31;;;;;;;;;;;20.40;64.50;;;;;;5093083;28;19908;-59
2022/10/30 08:48:57;;;;;;;;;;;20.40;64.50;;;;;;5093167;28;19930;-59
2022/10/30 08:51:22;;;;;;;;;;;20.40;64.50;;;;;;5093072;28;20067;-59
2022/10/30 08:53:51;;;;;;;;;;;20.40;65.30;;;;;;5093030;28;19909;-59
2022/10/30 08:56:16;;;;;;;;;;;20.40;64.50;;;;;;5092003;28;19914;-59
2022/10/30 08:58:42;;;;;;;;;;;20.40;64.50;;;;;;5093075;28;19908;-59
2022/10/30 09:01:07;;;;;;;;;;;20.40;64.50;;;;;;5092772;28;20029;-59
2022/10/30 09:03:33;;;;;;;;;;;20.40;64.50;;;;;;5074687;28;19973;-59
2022/10/30 09:05:58;;;;;;;;;;;20.40;64.50;;;;;;5074657;28;19908;-59
2022/10/30 09:08:24;;;;;;;;;;;20.40;64.50;;;;;;5056401;28;20464;-59
2022/10/30 09:10:53;;;;;;;;;;;20.40;64.50;;;;;;5051606;28;20287;-58
2022/10/30 09:13:18;;;;;;;;;;;20.40;64.60;;;;;;5053033;28;20002;-58
2022/10/30 09:15:44;;;;;;;;;;;20.40;64.70;;;;;;5039776;28;19909;-58
2022/10/30 09:18:09;;;;;;;;;;;20.30;64.80;;;;;;5032748;28;19943;-59
2022/10/30 09:20:35;;;;;;;;;;;20.30;64.90;;;;;;5032500;28;19913;-58
2022/10/30 09:23:00;;;;;;;;;;;20.30;64.90;;;;;;5032685;28;19954;-59
2022/10/30 09:25:26;;;;;;;;;;;20.30;64.90;;;;;;5031777;28;19910;-59
2022/10/30 09:27:51;;;;;;;;;;;20.40;65.00;;;;;;5031293;28;20027;-59
2022/10/30 09:30:17;;;;;;;;;;;20.40;64.80;;;;;;5032593;28;19909;-58
2022/10/30 09:32:42;;;;;;;;;;;20.40;64.80;;;;;;5032722;28;19948;-58
2022/10/30 09:35:08;;;;;;;;;;;20.40;64.70;;;;;;5032495;28;19954;-59
2022/10/30 09:37:36;;;;;;;;;;;20.40;64.80;;;;;;5032382;28;19963;-59
2022/10/30 09:40:03;;;;;;;;;;;20.40;65.00;;;;;;5050545;28;19912;-59
2022/10/30 09:42:32;;;;;;;;;;;20.30;65.00;;;;;;5050846;28;20280;-59
2022/10/30 09:45:04;;;;;;;;;;;20.30;65.10;;;;;;5053531;28;20020;-59
2022/10/30 09:47:32;;;;;;;;;;;20.30;65.20;;;;;;5044901;28;19913;-59
2022/10/30 09:50:07;;;;;;;;;;;20.30;65.30;;;;;;5036294;28;19909;-59
2022/10/30 09:52:51;;;;;;;;;;;20.30;65.30;;;;;;5036256;28;19909;-59
2022/10/30 09:55:37;;;;;;;;;;;20.30;65.40;;;;;;5035734;28;19913;-59
2022/10/30 09:58:05;;;;;;;;;;;20.30;65.50;;;;;;5028587;28;20296;-59
2022/10/30 10:00:33;;;;;;;;;;;20.20;65.50;;;;;;5034604;28;20399;-59
2022/10/30 10:03:01;;;;;;;;;;;20.30;65.50;;;;;;5034704;28;19975;-59
2022/10/30 10:05:46;;;;;;;;;;;20.30;65.50;;;;;;5035773;28;20361;-59
2022/10/30 10:08:16;;;;;;;;;;;20.30;65.60;;;;;;5067252;28;19920;-59
2022/10/30 10:10:42;;;;;;;;;;;20.30;65.70;;;;;;5076929;28;20388;-59
2022/10/30 10:13:19;;;;;;;;;;;20.20;65.60;;;;;;5077986;28;20329;-60
2022/10/30 10:15:46;;;;;;;;;;;20.30;65.70;;;;;;5077699;28;19912;-59
2022/10/30 10:18:21;;;;;;;;;;;20.30;65.70;;;;;;5077816;28;19915;-58
2022/10/30 10:20:48;;;;;;;;;;;20.30;65.70;;;;;;5077506;28;19908;-59
2022/10/30 10:23:37;;;;;;;;;;;20.30;65.80;;;;;;5095796;28;20462;-59
2022/10/30 10:26:05;;;;;;;;;;;20.30;65.80;;;;;;5076848;28;19909;-59
2022/10/30 10:28:49;;;;;;;;;;;20.20;65.70;;;;;;5057619;28;19915;-58
2022/10/30 10:31:47;;;;;;;;;;;20.20;65.80;;;;;;5075215;28;19908;-59
2022/10/30 10:34:12;;;;;;;;;;;20.20;65.90;;;;;;5041434;28;19919;-59
2022/10/30 10:36:40;;;;;;;;;;;20.20;66.00;;;;;;5075228;28;19908;-59
2022/10/30 10:39:09;;;;;;;;;;;20.30;66.00;;;;;;5070232;28;19908;-59
2022/10/30 10:41:40;;;;;;;;;;;20.30;66.00;;;;;;5094594;28;20332;-59
2022/10/30 10:44:18;;;;;;;;;;;20.30;66.00;;;;;;5095364;28;19922;-58
2022/10/30 10:46:50;;;;;;;;;;;20.30;66.10;;;;;;5095249;28;19929;-59
2022/10/30 10:49:18;;;;;;;;;;;20.30;66.00;;;;;;5077402;28;19955;-59
2022/10/30 10:51:50;;;;;;;;;;;20.30;65.90;;;;;;5095149;28;19909;-59
2022/10/30 10:54:17;;;;;;;;;;;20.30;66.00;;;;;;5095658;28;20415;-59
2022/10/30 10:56:44;;;;;;;;;;;20.30;66.00;;;;;;5075959;28;19908;-58
2022/10/30 10:59:13;;;;;;;;;;;20.30;65.90;;;;;;5095222;28;19908;-59
2022/10/30 11:01:39;;;;;;;;;;;20.30;66.00;;;;;;5094946;28;19908;-59
2022/10/30 11:04:24;;;;;;;;;;;20.30;66.10;;;;;;5076788;28;20394;-59
2022/10/30 11:06:50;;;;;;;;;;;20.30;66.10;;;;;;5094636;28;19912;-59
2022/10/30 11:09:18;;;;;;;;;;;20.30;66.10;;;;;;5077105;28;19922;-58
2022/10/30 11:11:44;;;;;;;;;;;20.40;66.20;;;;;;5093960;28;19953;-59
2022/10/30 11:14:19;;;;;;;;;;;20.40;66.00;;;;;;5076838;28;19909;-58
2022/10/30 11:16:44;;;;;;;;;;;20.40;66.00;;;;;;5057241;28;19912;-59
2022/10/30 11:19:10;;;;;;;;;;;20.40;66.10;;;;;;5074471;28;20320;-58
2022/10/30 11:21:37;;;;;;;;;;;20.40;66.10;;;;;;5074362;28;20505;-59
2022/10/30 11:24:03;;;;;;;;;;;20.40;66.00;;;;;;5056437;28;19935;-59
2022/10/30 11:26:30;;;;;;;;;;;20.50;66.00;;;;;;5055510;28;19909;-59
2022/10/30 11:28:58;;;;;;;;;;;20.50;66.10;;;;;;5056303;28;19913;-59
2022/10/30 11:31:33;;;;;;;;;;;20.50;66.00;;;;;;5074072;28;19966;-59
2022/10/30 11:34:17;;;;;;;;;;;20.50;66.10;;;;;;5056786;28;20295;-59
2022/10/30 11:36:43;;;;;;;;;;;20.50;66.10;;;;;;5073752;28;19909;-59
2022/10/30 11:39:09;;;;;;;;;;;20.50;66.10;;;;;;5087270;28;19908;-59
2022/10/30 11:41:34;;;;;;;;;;;20.50;66.10;;;;;;5093438;28;19997;-59
2022/10/30 11:44:00;;;;;;;;;;;20.50;66.10;;;;;;5094099;28;19912;-59
2022/10/30 11:46:25;;;;;;;;;;;20.50;66.10;;;;;;5091486;28;20059;-59
2022/10/30 11:48:53;;;;;;;;;;;20.50;66.10;;;;;;5055965;28;19908;-59
2022/10/30 11:51:32;;;;;;;;;;;20.50;66.10;;;;;;5073603;28;19908;-58
2022/10/30 11:53:58;;;;;;;;;;;20.50;66.10;;;;;;5055989;28;19908;-59
2022/10/30 11:56:23;;;;;;;;;;;20.60;66.20;;;;;;5072714;28;19909;-58
2022/10/30 11:58:49;;;;;;;;;;;20.60;66.10;;;;;;5073640;28;19915;-59
2022/10/30 12:01:15;;;;;;;;;;;20.60;66.10;;;;;;5055658;28;19909;-59
2022/10/30 12:03:40;;;;;;;;;;;20.60;66.10;;;;;;5073480;28;20283;-59
2022/10/30 12:06:09;;;;;;;;;;;20.60;66.20;;;;;;5073832;28;20422;-58
2022/10/30 12:08:34;;;;;;;;;;;20.60;66.10;;;;;;5081515;28;20033;-58
2022/10/30 12:11:00;;;;;;;;;;;20.60;66.10;;;;;;5091477;28;20013;-59
2022/10/30 12:13:26;;;;;;;;;;;20.60;66.30;;;;;;5093815;28;19961;-58
2022/10/30 12:16:08;;;;;;;;;;;20.60;66.20;;;;;;5092151;28;20310;-59
2022/10/30 12:18:33;;;;;;;;;;;20.60;66.20;;;;;;5093636;28;19996;-59
2022/10/30 12:20:59;;;;;;;;;;;20.70;66.40;;;;;;5075013;28;19908;-59
2022/10/30 12:23:25;;;;;;;;;;;20.70;66.40;;;;;;5093545;28;19970;-59
2022/10/30 12:25:51;;;;;;;;;;;20.70;66.50;;;;;;5079409;28;19912;-59
2022/10/30 12:28:17;;;;;;;;;;;20.60;66.30;;;;;;5055475;28;19909;-59
2022/10/30 12:30:49;;;;;;;;;;;20.70;66.50;;;;;;5054917;28;20429;-59
2022/10/30 12:33:15;;;;;;;;;;;20.70;66.50;;;;;;5073220;28;19955;-59
2022/10/30 12:35:45;;;;;;;;;;;20.70;66.50;;;;;;5038263;28;20424;-59
2022/10/30 12:38:15;;;;;;;;;;;20.70;66.50;;;;;;5060344;28;19916;-59
2022/10/30 12:40:42;;;;;;;;;;;20.70;66.50;;;;;;5092261;28;20402;-60
2022/10/30 12:43:14;;;;;;;;;;;20.60;66.50;;;;;;5075234;28;20363;-59
2022/10/30 12:45:41;;;;;;;;;;;20.60;66.60;;;;;;5092924;28;19908;-59
2022/10/30 12:48:11;;;;;;;;;;;20.60;66.70;;;;;;5075272;28;19915;-58
2022/10/30 12:50:39;;;;;;;;;;;20.60;66.80;;;;;;5058469;28;19919;-59
2022/10/30 12:53:10;;;;;;;;;;;20.60;66.80;;;;;;5093090;28;20003;-58
2022/10/30 12:55:36;;;;;;;;;;;20.60;67.00;;;;;;5092065;28;19912;-59
2022/10/30 12:58:22;;;;;;;;;;;20.60;67.10;;;;;;5074924;28;19912;-59
2022/10/30 13:00:53;;;;;;;;;;;20.60;67.10;;;;;;5092785;28;20007;-59
2022/10/30 13:03:27;;;;;;;;;;;20.60;67.00;;;;;;5074796;28;19912;-59
2022/10/30 13:05:54;;;;;;;;;;;20.60;67.10;;;;;;5074683;28;19908;-59
2022/10/30 13:08:21;;;;;;;;;;;20.60;67.10;;;;;;5092647;28;19926;-59
2022/10/30 13:10:48;;;;;;;;;;;20.60;67.10;;;;;;5091799;28;19940;-58
2022/10/30 13:13:20;;;;;;;;;;;20.60;67.10;;;;;;5092893;28;19916;-59
2022/10/30 13:15:54;;;;;;;;;;;20.70;67.20;;;;;;5080340;28;19909;-59
2022/10/30 13:18:21;;;;;;;;;;;20.70;67.20;;;;;;5038004;28;19908;-59
2022/10/30 13:20:51;;;;;;;;;;;20.60;67.10;;;;;;5057345;28;19912;-59
2022/10/30 13:23:21;;;;;;;;;;;20.60;67.10;;;;;;5058781;28;19916;-59
2022/10/30 13:25:53;;;;;;;;;;;20.70;67.20;;;;;;5057839;28;19913;-59
2022/10/30 13:28:31;;;;;;;;;;;20.60;67.10;;;;;;5076617;28;19909;-59
2022/10/30 13:31:01;;;;;;;;;;;20.60;67.10;;;;;;5058424;28;19961;-58
2022/10/30 13:33:38;;;;;;;;;;;20.60;67.10;;;;;;5058632;28;20053;-59
2022/10/30 13:36:11;;;;;;;;;;;20.60;67.10;;;;;;5058582;28;19908;-58
2022/10/30 13:38:40;;;;;;;;;;;20.70;67.20;;;;;;5067273;28;19966;-59
2022/10/30 13:41:08;;;;;;;;;;;20.70;67.20;;;;;;5077454;28;19919;-58
2022/10/30 13:43:40;;;;;;;;;;;20.70;67.20;;;;;;5078743;28;19919;-59
2022/10/30 13:46:08;;;;;;;;;;;20.70;68.00;;;;;;5078253;28;19908;-59
2022/10/30 13:48:33;;;;;;;;;;;20.60;67.10;;;;;;5076551;28;19909;-59
2022/10/30 13:51:21;;;;;;;;;;;20.70;67.20;;;;;;5075941;28;19909;-59
2022/10/30 13:53:48;;;;;;;;;;;20.70;67.20;;;;;;5058173;28;19935;-59
2022/10/30 13:56:16;;;;;;;;;;;20.70;67.20;;;;;;5057165;28;20438;-59
2022/10/30 13:58:47;;;;;;;;;;;20.70;67.20;;;;;;5058058;28;19909;-59
2022/10/30 14:01:17;;;;;;;;;;;20.70;67.20;;;;;;5057900;28;19962;-59
2022/10/30 14:03:48;;;;;;;;;;;20.60;67.10;;;;;;5075809;28;19919;-59
2022/10/30 14:06:17;;;;;;;;;;;20.60;67.10;;;;;;5075699;28;19916;-58
2022/10/30 14:08:51;;;;;;;;;;;20.60;67.10;;;;;;5085123;28;19916;-59
2022/10/30 14:11:17;;;;;;;;;;;20.60;67.30;;;;;;5095106;28;19915;-59
2022/10/30 14:13:55;;;;;;;;;;;20.60;67.40;;;;;;5095967;28;19908;-59
2022/10/30 14:16:33;;;;;;;;;;;20.60;67.40;;;;;;5077612;28;19915;-59
2022/10/30 14:18:59;;;;;;;;;;;20.60;67.40;;;;;;5095925;28;19908;-59